sensor_id;sensor_type;location;lat;lon;timestamp;P1;durP1;ratioP1;P2;durP2;ratioP2
19179;SDS011;9722;48.754;8.868;2023-08-20T00:00:36;8.40;;;7.63;;
19179;SDS011;9722;48.754;8.868;2023-08-20T00:03:57;9.03;;;8.33;;
19179;SDS011;9722;48.754;8.868;2023-08-20T00:07:18;8.93;;;8.10;;
19179;SDS011;9722;48.754;8.868;2023-08-20T00:10:39;8.53;;;7.93;;
19179;SDS011;9722;48.754;8.868;2023-08-20T00:13:59;9.07;;;8.37;;
19179;SDS011;9722;48.754;8.868;2023-08-20T00:17:20;9.07;;;8.20;;
19179;SDS011;9722;48.754;8.868;2023-08-20T00:20:41;8.67;;;7.97;;
19179;SDS011;9722;48.754;8.868;2023-08-20T00:24:02;8.77;;;8.17;;
19179;SDS011;9722;48.754;8.868;2023-08-20T00:27:23;9.20;;;8.50;;
19179;SDS011;9722;48.754;8.868;2023-08-20T00:30:44;8.73;;;8.03;;
19179;SDS011;9722;48.754;8.868;2023-08-20T00:34:05;9.00;;;8.30;;
19179;SDS011;9722;48.754;8.868;2023-08-20T00:37:25;8.43;;;7.83;;
19179;SDS011;9722;48.754;8.868;2023-08-20T00:40:46;9.07;;;8.23;;
19179;SDS011;9722;48.754;8.868;2023-08-20T00:44:06;8.70;;;8.00;;
19179;SDS011;9722;48.754;8.868;2023-08-20T00:47:27;8.43;;;7.77;;
19179;SDS011;9722;48.754;8.868;2023-08-20T00:50:48;10.60;;;8.07;;
19179;SDS011;9722;48.754;8.868;2023-08-20T00:54:09;8.57;;;7.70;;
19179;SDS011;9722;48.754;8.868;2023-08-20T00:57:30;9.63;;;8.03;;
19179;SDS011;9722;48.754;8.868;2023-08-20T01:00:50;9.20;;;8.53;;
19179;SDS011;9722;48.754;8.868;2023-08-20T01:04:11;8.90;;;8.30;;
19179;SDS011;9722;48.754;8.868;2023-08-20T01:11:01;9.37;;;8.37;;
19179;SDS011;9722;48.754;8.868;2023-08-20T01:14:30;8.93;;;8.07;;
19179;SDS011;9722;48.754;8.868;2023-08-20T01:17:51;8.03;;;7.33;;
19179;SDS011;9722;48.754;8.868;2023-08-20T01:21:23;8.47;;;7.50;;
19179;SDS011;9722;48.754;8.868;2023-08-20T01:28:27;8.10;;;7.50;;
19179;SDS011;9722;48.754;8.868;2023-08-20T01:31:48;8.73;;;7.93;;
19179;SDS011;9722;48.754;8.868;2023-08-20T01:35:13;8.87;;;8.00;;
19179;SDS011;9722;48.754;8.868;2023-08-20T01:38:33;8.40;;;7.90;;
19179;SDS011;9722;48.754;8.868;2023-08-20T01:41:54;8.33;;;7.63;;
19179;SDS011;9722;48.754;8.868;2023-08-20T01:45:14;9.23;;;8.63;;
19179;SDS011;9722;48.754;8.868;2023-08-20T01:48:35;8.90;;;8.30;;
19179;SDS011;9722;48.754;8.868;2023-08-20T01:51:56;9.80;;;8.90;;
19179;SDS011;9722;48.754;8.868;2023-08-20T01:55:16;9.00;;;8.40;;
19179;SDS011;9722;48.754;8.868;2023-08-20T01:58:37;8.67;;;8.07;;
19179;SDS011;9722;48.754;8.868;2023-08-20T02:01:57;8.67;;;7.97;;
19179;SDS011;9722;48.754;8.868;2023-08-20T02:05:18;8.87;;;8.30;;
19179;SDS011;9722;48.754;8.868;2023-08-20T02:08:38;8.80;;;8.20;;
19179;SDS011;9722;48.754;8.868;2023-08-20T02:11:59;8.60;;;8.00;;
19179;SDS011;9722;48.754;8.868;2023-08-20T02:15:19;8.77;;;7.87;;
19179;SDS011;9722;48.754;8.868;2023-08-20T02:18:40;8.87;;;8.13;;
19179;SDS011;9722;48.754;8.868;2023-08-20T02:22:00;8.90;;;8.30;;
19179;SDS011;9722;48.754;8.868;2023-08-20T02:25:21;9.37;;;8.67;;
19179;SDS011;9722;48.754;8.868;2023-08-20T02:28:42;9.67;;;8.87;;
19179;SDS011;9722;48.754;8.868;2023-08-20T02:32:03;9.20;;;8.53;;
19179;SDS011;9722;48.754;8.868;2023-08-20T02:35:24;8.67;;;7.97;;
19179;SDS011;9722;48.754;8.868;2023-08-20T02:38:44;8.60;;;8.00;;
19179;SDS011;9722;48.754;8.868;2023-08-20T02:42:05;9.00;;;8.40;;
19179;SDS011;9722;48.754;8.868;2023-08-20T02:45:26;8.60;;;7.80;;
19179;SDS011;9722;48.754;8.868;2023-08-20T02:48:46;8.87;;;8.17;;
19179;SDS011;9722;48.754;8.868;2023-08-20T02:52:07;8.63;;;8.00;;
19179;SDS011;9722;48.754;8.868;2023-08-20T06:22:40;7.80;;;7.20;;
19179;SDS011;9722;48.754;8.868;2023-08-20T06:26:00;8.43;;;7.83;;
19179;SDS011;9722;48.754;8.868;2023-08-20T06:29:21;7.93;;;7.33;;
19179;SDS011;9722;48.754;8.868;2023-08-20T06:32:42;7.60;;;7.00;;
19179;SDS011;9722;48.754;8.868;2023-08-20T06:36:06;8.60;;;7.30;;
19179;SDS011;9722;48.754;8.868;2023-08-20T06:39:26;8.33;;;7.73;;
19179;SDS011;9722;48.754;8.868;2023-08-20T06:42:47;7.27;;;6.67;;
19179;SDS011;9722;48.754;8.868;2023-08-20T06:46:08;7.20;;;6.70;;
19179;SDS011;9722;48.754;8.868;2023-08-20T06:49:29;7.83;;;7.30;;
19179;SDS011;9722;48.754;8.868;2023-08-20T06:52:49;8.00;;;7.03;;
19179;SDS011;9722;48.754;8.868;2023-08-20T06:56:10;6.80;;;6.40;;
19179;SDS011;9722;48.754;8.868;2023-08-20T06:59:31;6.77;;;6.33;;
19179;SDS011;9722;48.754;8.868;2023-08-20T07:02:51;7.70;;;6.90;;
19179;SDS011;9722;48.754;8.868;2023-08-20T07:06:12;7.20;;;6.60;;
19179;SDS011;9722;48.754;8.868;2023-08-20T07:09:35;7.30;;;6.80;;
19179;SDS011;9722;48.754;8.868;2023-08-20T07:12:55;7.23;;;6.73;;
19179;SDS011;9722;48.754;8.868;2023-08-20T07:16:16;6.70;;;6.30;;
19179;SDS011;9722;48.754;8.868;2023-08-20T07:19:36;6.93;;;6.47;;
19179;SDS011;9722;48.754;8.868;2023-08-20T07:22:57;6.40;;;6.00;;
19179;SDS011;9722;48.754;8.868;2023-08-20T07:26:18;7.57;;;6.97;;
19179;SDS011;9722;48.754;8.868;2023-08-20T07:29:38;6.57;;;6.17;;
19179;SDS011;9722;48.754;8.868;2023-08-20T07:33:01;6.70;;;6.20;;
19179;SDS011;9722;48.754;8.868;2023-08-20T07:36:23;6.70;;;5.63;;
19179;SDS011;9722;48.754;8.868;2023-08-20T07:39:44;6.20;;;5.70;;
19179;SDS011;9722;48.754;8.868;2023-08-20T07:43:05;6.77;;;6.27;;
19179;SDS011;9722;48.754;8.868;2023-08-20T07:46:25;6.43;;;5.93;;
19179;SDS011;9722;48.754;8.868;2023-08-20T07:49:46;6.77;;;6.27;;
19179;SDS011;9722;48.754;8.868;2023-08-20T07:53:06;6.50;;;6.00;;
19179;SDS011;9722;48.754;8.868;2023-08-20T07:56:27;6.83;;;6.23;;
19179;SDS011;9722;48.754;8.868;2023-08-20T07:59:47;6.20;;;5.90;;
19179;SDS011;9722;48.754;8.868;2023-08-20T08:03:08;7.33;;;6.83;;
19179;SDS011;9722;48.754;8.868;2023-08-20T08:06:29;6.67;;;6.27;;
19179;SDS011;9722;48.754;8.868;2023-08-20T08:09:50;7.43;;;6.50;;
19179;SDS011;9722;48.754;8.868;2023-08-20T08:13:11;7.70;;;6.40;;
19179;SDS011;9722;48.754;8.868;2023-08-20T08:16:32;7.83;;;7.13;;
19179;SDS011;9722;48.754;8.868;2023-08-20T08:19:53;7.33;;;6.87;;
19179;SDS011;9722;48.754;8.868;2023-08-20T08:23:15;6.90;;;6.40;;
19179;SDS011;9722;48.754;8.868;2023-08-20T08:26:35;7.57;;;6.90;;
19179;SDS011;9722;48.754;8.868;2023-08-20T08:29:57;6.25;;;5.90;;
19179;SDS011;9722;48.754;8.868;2023-08-20T08:33:17;7.03;;;6.53;;
19179;SDS011;9722;48.754;8.868;2023-08-20T08:36:38;7.30;;;6.80;;
19179;SDS011;9722;48.754;8.868;2023-08-20T08:39:58;6.88;;;6.30;;
19179;SDS011;9722;48.754;8.868;2023-08-20T08:43:19;7.10;;;6.60;;
19179;SDS011;9722;48.754;8.868;2023-08-20T08:46:40;7.35;;;6.65;;
19179;SDS011;9722;48.754;8.868;2023-08-20T08:50:00;7.18;;;6.68;;
19179;SDS011;9722;48.754;8.868;2023-08-20T08:53:23;6.60;;;6.05;;
19179;SDS011;9722;48.754;8.868;2023-08-20T08:56:44;7.32;;;6.72;;
19179;SDS011;9722;48.754;8.868;2023-08-20T09:00:05;7.15;;;6.55;;
19179;SDS011;9722;48.754;8.868;2023-08-20T09:03:26;9.15;;;7.63;;
19179;SDS011;9722;48.754;8.868;2023-08-20T09:06:47;6.97;;;6.25;;
19179;SDS011;9722;48.754;8.868;2023-08-20T09:10:11;8.07;;;7.47;;
19179;SDS011;9722;48.754;8.868;2023-08-20T09:13:33;7.97;;;7.03;;
19179;SDS011;9722;48.754;8.868;2023-08-20T09:17:02;6.20;;;5.80;;
19179;SDS011;9722;48.754;8.868;2023-08-20T09:20:36;7.40;;;6.90;;
19179;SDS011;9722;48.754;8.868;2023-08-20T09:23:57;6.95;;;5.70;;
19179;SDS011;9722;48.754;8.868;2023-08-20T09:27:17;6.70;;;6.20;;
19179;SDS011;9722;48.754;8.868;2023-08-20T09:30:38;6.75;;;6.00;;
19179;SDS011;9722;48.754;8.868;2023-08-20T09:34:01;7.18;;;6.28;;
19179;SDS011;9722;48.754;8.868;2023-08-20T09:37:23;6.60;;;6.03;;
19179;SDS011;9722;48.754;8.868;2023-08-20T09:40:44;6.53;;;6.10;;
19179;SDS011;9722;48.754;8.868;2023-08-20T09:44:07;6.45;;;5.90;;
19179;SDS011;9722;48.754;8.868;2023-08-20T09:47:28;6.10;;;5.53;;
19179;SDS011;9722;48.754;8.868;2023-08-20T09:50:51;5.70;;;5.30;;
19179;SDS011;9722;48.754;8.868;2023-08-20T09:54:21;5.70;;;5.20;;
19179;SDS011;9722;48.754;8.868;2023-08-20T09:57:52;5.50;;;5.13;;
19179;SDS011;9722;48.754;8.868;2023-08-20T10:01:14;5.38;;;5.07;;
19179;SDS011;9722;48.754;8.868;2023-08-20T10:04:34;4.65;;;4.35;;
19179;SDS011;9722;48.754;8.868;2023-08-20T10:07:55;4.95;;;4.55;;
19179;SDS011;9722;48.754;8.868;2023-08-20T10:11:15;5.45;;;4.43;;
19179;SDS011;9722;48.754;8.868;2023-08-20T10:14:36;5.78;;;5.22;;
19179;SDS011;9722;48.754;8.868;2023-08-20T10:17:57;4.55;;;4.13;;
19179;SDS011;9722;48.754;8.868;2023-08-20T10:21:19;4.43;;;4.13;;
19179;SDS011;9722;48.754;8.868;2023-08-20T10:24:47;5.10;;;4.78;;
19179;SDS011;9722;48.754;8.868;2023-08-20T10:28:20;5.53;;;5.07;;
19179;SDS011;9722;48.754;8.868;2023-08-20T10:31:47;4.95;;;4.55;;
19179;SDS011;9722;48.754;8.868;2023-08-20T10:35:08;5.20;;;4.47;;
19179;SDS011;9722;48.754;8.868;2023-08-20T10:38:29;5.07;;;4.63;;
19179;SDS011;9722;48.754;8.868;2023-08-20T10:42:08;4.72;;;4.40;;
19179;SDS011;9722;48.754;8.868;2023-08-20T10:45:43;4.70;;;4.40;;
19179;SDS011;9722;48.754;8.868;2023-08-20T10:49:04;4.57;;;4.18;;
19179;SDS011;9722;48.754;8.868;2023-08-20T10:52:26;4.68;;;4.28;;
19179;SDS011;9722;48.754;8.868;2023-08-20T10:55:49;4.43;;;4.13;;
19179;SDS011;9722;48.754;8.868;2023-08-20T10:59:17;4.75;;;4.35;;
19179;SDS011;9722;48.754;8.868;2023-08-20T11:02:42;4.22;;;3.97;;
19179;SDS011;9722;48.754;8.868;2023-08-20T11:06:03;4.60;;;4.22;;
19179;SDS011;9722;48.754;8.868;2023-08-20T11:09:24;5.32;;;3.60;;
19179;SDS011;9722;48.754;8.868;2023-08-20T11:12:46;4.18;;;3.92;;
19179;SDS011;9722;48.754;8.868;2023-08-20T11:16:07;4.57;;;4.18;;
19179;SDS011;9722;48.754;8.868;2023-08-20T11:19:27;4.35;;;3.90;;
19179;SDS011;9722;48.754;8.868;2023-08-20T11:22:48;4.10;;;3.80;;
19179;SDS011;9722;48.754;8.868;2023-08-20T11:26:08;4.57;;;4.15;;
19179;SDS011;9722;48.754;8.868;2023-08-20T11:29:29;4.57;;;4.28;;
19179;SDS011;9722;48.754;8.868;2023-08-20T11:32:51;4.20;;;4.00;;
19179;SDS011;9722;48.754;8.868;2023-08-20T11:36:14;3.60;;;3.40;;
19179;SDS011;9722;48.754;8.868;2023-08-20T11:39:36;4.32;;;3.60;;
19179;SDS011;9722;48.754;8.868;2023-08-20T11:42:57;3.80;;;3.50;;
19179;SDS011;9722;48.754;8.868;2023-08-20T11:46:19;4.13;;;3.70;;
19179;SDS011;9722;48.754;8.868;2023-08-20T11:49:40;4.70;;;4.40;;
19179;SDS011;9722;48.754;8.868;2023-08-20T11:53:01;4.40;;;4.07;;
19179;SDS011;9722;48.754;8.868;2023-08-20T11:56:23;4.55;;;4.35;;
19179;SDS011;9722;48.754;8.868;2023-08-20T11:59:43;4.63;;;4.43;;
19179;SDS011;9722;48.754;8.868;2023-08-20T12:03:04;5.10;;;4.40;;
19179;SDS011;9722;48.754;8.868;2023-08-20T12:06:25;4.38;;;4.05;;
19179;SDS011;9722;48.754;8.868;2023-08-20T12:09:50;5.40;;;4.57;;
19179;SDS011;9722;48.754;8.868;2023-08-20T12:13:10;5.18;;;4.78;;
19179;SDS011;9722;48.754;8.868;2023-08-20T12:16:31;4.88;;;4.22;;
19179;SDS011;9722;48.754;8.868;2023-08-20T12:19:51;4.18;;;3.88;;
19179;SDS011;9722;48.754;8.868;2023-08-20T12:23:12;5.03;;;4.60;;
19179;SDS011;9722;48.754;8.868;2023-08-20T12:26:32;4.30;;;4.00;;
19179;SDS011;9722;48.754;8.868;2023-08-20T12:29:53;4.32;;;3.95;;
19179;SDS011;9722;48.754;8.868;2023-08-20T12:33:13;4.03;;;3.83;;
19179;SDS011;9722;48.754;8.868;2023-08-20T12:36:34;3.83;;;3.63;;
19179;SDS011;9722;48.754;8.868;2023-08-20T12:39:54;4.47;;;3.80;;
19179;SDS011;9722;48.754;8.868;2023-08-20T12:43:15;3.85;;;3.65;;
19179;SDS011;9722;48.754;8.868;2023-08-20T12:46:36;4.43;;;4.13;;
19179;SDS011;9722;48.754;8.868;2023-08-20T12:49:56;4.70;;;4.30;;
19179;SDS011;9722;48.754;8.868;2023-08-20T12:53:17;4.28;;;3.97;;
19179;SDS011;9722;48.754;8.868;2023-08-20T12:56:37;4.70;;;4.30;;
19179;SDS011;9722;48.754;8.868;2023-08-20T12:59:58;7.57;;;4.53;;
19179;SDS011;9722;48.754;8.868;2023-08-20T13:03:19;4.53;;;3.78;;
19179;SDS011;9722;48.754;8.868;2023-08-20T13:06:39;4.20;;;3.90;;
19179;SDS011;9722;48.754;8.868;2023-08-20T13:10:01;4.43;;;4.05;;
19179;SDS011;9722;48.754;8.868;2023-08-20T13:13:22;4.70;;;4.15;;
19179;SDS011;9722;48.754;8.868;2023-08-20T13:16:44;4.57;;;4.20;;
19179;SDS011;9722;48.754;8.868;2023-08-20T13:20:04;4.22;;;3.80;;
19179;SDS011;9722;48.754;8.868;2023-08-20T13:23:25;4.38;;;4.07;;
19179;SDS011;9722;48.754;8.868;2023-08-20T13:26:46;4.82;;;4.40;;
19179;SDS011;9722;48.754;8.868;2023-08-20T13:30:07;3.63;;;3.42;;
19179;SDS011;9722;48.754;8.868;2023-08-20T13:33:28;4.35;;;4.05;;
19179;SDS011;9722;48.754;8.868;2023-08-20T13:36:48;5.05;;;4.65;;
19179;SDS011;9722;48.754;8.868;2023-08-20T13:40:09;6.70;;;4.65;;
19179;SDS011;9722;48.754;8.868;2023-08-20T13:43:30;4.80;;;4.40;;
19179;SDS011;9722;48.754;8.868;2023-08-20T13:46:50;5.18;;;4.25;;
19179;SDS011;9722;48.754;8.868;2023-08-20T13:50:11;5.57;;;4.05;;
19179;SDS011;9722;48.754;8.868;2023-08-20T13:53:31;5.07;;;4.55;;
19179;SDS011;9722;48.754;8.868;2023-08-20T13:56:52;4.85;;;4.20;;
19179;SDS011;9722;48.754;8.868;2023-08-20T14:00:12;4.50;;;4.07;;
19179;SDS011;9722;48.754;8.868;2023-08-20T14:03:34;5.10;;;4.70;;
19179;SDS011;9722;48.754;8.868;2023-08-20T14:06:55;7.72;;;5.00;;
19179;SDS011;9722;48.754;8.868;2023-08-20T14:10:15;5.22;;;4.72;;
19179;SDS011;9722;48.754;8.868;2023-08-20T14:13:36;5.80;;;4.95;;
19179;SDS011;9722;48.754;8.868;2023-08-20T14:16:56;6.47;;;5.13;;
19179;SDS011;9722;48.754;8.868;2023-08-20T14:20:17;5.63;;;5.22;;
19179;SDS011;9722;48.754;8.868;2023-08-20T14:23:37;5.18;;;4.78;;
19179;SDS011;9722;48.754;8.868;2023-08-20T14:26:58;5.10;;;4.70;;
19179;SDS011;9722;48.754;8.868;2023-08-20T14:30:18;4.88;;;4.47;;
19179;SDS011;9722;48.754;8.868;2023-08-20T14:33:39;5.57;;;5.07;;
19179;SDS011;9722;48.754;8.868;2023-08-20T14:36:59;5.35;;;4.88;;
19179;SDS011;9722;48.754;8.868;2023-08-20T14:40:20;5.22;;;4.80;;
19179;SDS011;9722;48.754;8.868;2023-08-20T14:43:41;6.18;;;5.68;;
19179;SDS011;9722;48.754;8.868;2023-08-20T14:47:02;5.47;;;5.10;;
19179;SDS011;9722;48.754;8.868;2023-08-20T14:50:24;4.87;;;4.57;;
19179;SDS011;9722;48.754;8.868;2023-08-20T14:53:45;6.13;;;5.23;;
19179;SDS011;9722;48.754;8.868;2023-08-20T14:57:05;5.23;;;4.83;;
19179;SDS011;9722;48.754;8.868;2023-08-20T15:00:26;6.07;;;5.17;;
19179;SDS011;9722;48.754;8.868;2023-08-20T15:03:46;6.00;;;5.30;;
19179;SDS011;9722;48.754;8.868;2023-08-20T15:07:07;5.17;;;4.77;;
19179;SDS011;9722;48.754;8.868;2023-08-20T15:10:27;5.40;;;4.90;;
19179;SDS011;9722;48.754;8.868;2023-08-20T15:13:48;5.50;;;5.00;;
19179;SDS011;9722;48.754;8.868;2023-08-20T15:17:08;5.77;;;5.30;;
19179;SDS011;9722;48.754;8.868;2023-08-20T15:20:29;5.20;;;4.73;;
19179;SDS011;9722;48.754;8.868;2023-08-20T15:23:49;5.10;;;4.67;;
19179;SDS011;9722;48.754;8.868;2023-08-20T15:27:10;4.70;;;4.30;;
19179;SDS011;9722;48.754;8.868;2023-08-20T15:30:30;4.83;;;4.53;;
19179;SDS011;9722;48.754;8.868;2023-08-20T15:33:51;5.17;;;4.77;;
19179;SDS011;9722;48.754;8.868;2023-08-20T15:37:11;4.77;;;4.47;;
19179;SDS011;9722;48.754;8.868;2023-08-20T15:40:32;4.80;;;4.37;;
19179;SDS011;9722;48.754;8.868;2023-08-20T15:43:53;5.23;;;4.50;;
19179;SDS011;9722;48.754;8.868;2023-08-20T15:47:13;5.83;;;4.50;;
19179;SDS011;9722;48.754;8.868;2023-08-20T15:50:35;6.47;;;4.70;;
19179;SDS011;9722;48.754;8.868;2023-08-20T15:53:55;4.87;;;4.57;;
19179;SDS011;9722;48.754;8.868;2023-08-20T15:57:16;7.13;;;4.30;;
19179;SDS011;9722;48.754;8.868;2023-08-20T16:00:36;4.17;;;3.87;;
19179;SDS011;9722;48.754;8.868;2023-08-20T16:03:57;5.40;;;4.90;;
19179;SDS011;9722;48.754;8.868;2023-08-20T16:07:18;5.13;;;4.73;;
19179;SDS011;9722;48.754;8.868;2023-08-20T16:10:38;4.80;;;4.40;;
19179;SDS011;9722;48.754;8.868;2023-08-20T16:13:59;5.67;;;4.67;;
19179;SDS011;9722;48.754;8.868;2023-08-20T16:17:19;4.30;;;4.00;;
19179;SDS011;9722;48.754;8.868;2023-08-20T16:20:40;5.13;;;4.40;;
19179;SDS011;9722;48.754;8.868;2023-08-20T16:24:00;4.67;;;4.20;;
19179;SDS011;9722;48.754;8.868;2023-08-20T16:27:21;5.07;;;4.57;;
19179;SDS011;9722;48.754;8.868;2023-08-20T16:30:42;5.07;;;4.57;;
19179;SDS011;9722;48.754;8.868;2023-08-20T16:34:06;5.90;;;4.27;;
19179;SDS011;9722;48.754;8.868;2023-08-20T16:37:26;5.40;;;3.97;;
19179;SDS011;9722;48.754;8.868;2023-08-20T16:40:47;5.23;;;4.80;;
19179;SDS011;9722;48.754;8.868;2023-08-20T16:44:08;4.93;;;4.37;;
19179;SDS011;9722;48.754;8.868;2023-08-20T16:47:28;5.37;;;4.97;;
19179;SDS011;9722;48.754;8.868;2023-08-20T16:50:49;4.80;;;4.40;;
19179;SDS011;9722;48.754;8.868;2023-08-20T16:54:09;4.57;;;4.37;;
19179;SDS011;9722;48.754;8.868;2023-08-20T16:57:30;5.37;;;4.87;;
19179;SDS011;9722;48.754;8.868;2023-08-20T17:00:50;4.43;;;4.13;;
19179;SDS011;9722;48.754;8.868;2023-08-20T17:04:11;4.47;;;4.07;;
19179;SDS011;9722;48.754;8.868;2023-08-20T17:07:31;4.93;;;4.30;;
19179;SDS011;9722;48.754;8.868;2023-08-20T17:10:52;4.33;;;3.97;;
19179;SDS011;9722;48.754;8.868;2023-08-20T17:14:12;4.57;;;3.87;;
19179;SDS011;9722;48.754;8.868;2023-08-20T17:17:33;9.07;;;4.90;;
19179;SDS011;9722;48.754;8.868;2023-08-20T17:20:53;5.20;;;4.50;;
19179;SDS011;9722;48.754;8.868;2023-08-20T17:24:14;4.93;;;4.53;;
19179;SDS011;9722;48.754;8.868;2023-08-20T17:27:35;4.43;;;4.00;;
19179;SDS011;9722;48.754;8.868;2023-08-20T17:31:01;6.43;;;4.07;;
19179;SDS011;9722;48.754;8.868;2023-08-20T17:34:23;6.53;;;4.37;;
19179;SDS011;9722;48.754;8.868;2023-08-20T17:37:43;5.73;;;4.40;;
19179;SDS011;9722;48.754;8.868;2023-08-20T17:41:04;4.83;;;4.40;;
19179;SDS011;9722;48.754;8.868;2023-08-20T17:44:25;4.97;;;4.00;;
19179;SDS011;9722;48.754;8.868;2023-08-20T17:47:45;4.33;;;3.93;;
19179;SDS011;9722;48.754;8.868;2023-08-20T17:51:06;5.33;;;3.93;;
19179;SDS011;9722;48.754;8.868;2023-08-20T17:54:26;4.10;;;3.70;;
19179;SDS011;9722;48.754;8.868;2023-08-20T17:57:47;4.47;;;4.07;;
19179;SDS011;9722;48.754;8.868;2023-08-20T18:01:07;4.03;;;3.73;;
19179;SDS011;9722;48.754;8.868;2023-08-20T18:04:28;4.00;;;3.70;;
19179;SDS011;9722;48.754;8.868;2023-08-20T18:07:48;4.77;;;3.80;;
19179;SDS011;9722;48.754;8.868;2023-08-20T18:11:09;4.47;;;3.53;;
19179;SDS011;9722;48.754;8.868;2023-08-20T18:14:31;3.80;;;3.60;;
19179;SDS011;9722;48.754;8.868;2023-08-20T18:17:51;4.17;;;3.87;;
19179;SDS011;9722;48.754;8.868;2023-08-20T18:21:12;4.60;;;3.70;;
19179;SDS011;9722;48.754;8.868;2023-08-20T18:24:33;7.37;;;3.97;;
19179;SDS011;9722;48.754;8.868;2023-08-20T18:27:53;4.73;;;3.67;;
19179;SDS011;9722;48.754;8.868;2023-08-20T18:31:14;3.80;;;3.47;;
19179;SDS011;9722;48.754;8.868;2023-08-20T18:34:34;4.40;;;3.97;;
19179;SDS011;9722;48.754;8.868;2023-08-20T18:37:55;4.13;;;3.73;;
19179;SDS011;9722;48.754;8.868;2023-08-20T18:41:16;5.33;;;3.87;;
19179;SDS011;9722;48.754;8.868;2023-08-20T18:44:37;4.57;;;3.80;;
19179;SDS011;9722;48.754;8.868;2023-08-20T18:47:58;4.43;;;4.00;;
19179;SDS011;9722;48.754;8.868;2023-08-20T18:51:20;3.97;;;3.67;;
19179;SDS011;9722;48.754;8.868;2023-08-20T18:54:42;4.70;;;4.40;;
19179;SDS011;9722;48.754;8.868;2023-08-20T18:58:03;4.20;;;3.90;;
19179;SDS011;9722;48.754;8.868;2023-08-20T19:01:23;6.33;;;4.43;;
19179;SDS011;9722;48.754;8.868;2023-08-20T19:04:44;7.67;;;4.57;;
19179;SDS011;9722;48.754;8.868;2023-08-20T19:08:04;4.70;;;4.30;;
19179;SDS011;9722;48.754;8.868;2023-08-20T19:11:25;4.80;;;4.40;;
19179;SDS011;9722;48.754;8.868;2023-08-20T19:14:46;4.40;;;4.10;;
19179;SDS011;9722;48.754;8.868;2023-08-20T19:18:06;5.00;;;4.30;;
19179;SDS011;9722;48.754;8.868;2023-08-20T19:21:27;5.40;;;4.20;;
19179;SDS011;9722;48.754;8.868;2023-08-20T19:24:47;5.00;;;4.47;;
19179;SDS011;9722;48.754;8.868;2023-08-20T19:28:09;10.10;;;4.73;;
19179;SDS011;9722;48.754;8.868;2023-08-20T19:31:30;4.87;;;4.57;;
19179;SDS011;9722;48.754;8.868;2023-08-20T19:34:51;5.80;;;4.67;;
19179;SDS011;9722;48.754;8.868;2023-08-20T19:38:13;5.83;;;4.30;;
19179;SDS011;9722;48.754;8.868;2023-08-20T19:41:34;6.80;;;4.50;;
19179;SDS011;9722;48.754;8.868;2023-08-20T19:44:54;5.23;;;4.73;;
19179;SDS011;9722;48.754;8.868;2023-08-20T19:48:15;4.70;;;4.27;;
19179;SDS011;9722;48.754;8.868;2023-08-20T19:51:35;5.57;;;5.03;;
19179;SDS011;9722;48.754;8.868;2023-08-20T19:54:56;5.90;;;5.40;;
19179;SDS011;9722;48.754;8.868;2023-08-20T19:58:16;5.20;;;4.90;;
19179;SDS011;9722;48.754;8.868;2023-08-20T20:01:52;6.00;;;5.60;;
19179;SDS011;9722;48.754;8.868;2023-08-20T20:05:13;5.80;;;5.20;;
19179;SDS011;9722;48.754;8.868;2023-08-20T20:08:33;6.10;;;5.50;;
19179;SDS011;9722;48.754;8.868;2023-08-20T20:11:54;6.07;;;5.60;;
19179;SDS011;9722;48.754;8.868;2023-08-20T20:15:14;5.93;;;5.40;;
19179;SDS011;9722;48.754;8.868;2023-08-20T20:18:35;6.00;;;5.50;;
19179;SDS011;9722;48.754;8.868;2023-08-20T20:21:55;6.00;;;5.53;;
19179;SDS011;9722;48.754;8.868;2023-08-20T20:25:16;6.80;;;6.10;;
19179;SDS011;9722;48.754;8.868;2023-08-20T20:28:36;6.30;;;5.37;;
19179;SDS011;9722;48.754;8.868;2023-08-20T20:31:58;6.07;;;4.63;;
19179;SDS011;9722;48.754;8.868;2023-08-20T20:35:19;5.87;;;5.30;;
19179;SDS011;9722;48.754;8.868;2023-08-20T20:38:40;8.27;;;5.00;;
19179;SDS011;9722;48.754;8.868;2023-08-20T20:42:00;5.73;;;5.23;;
19179;SDS011;9722;48.754;8.868;2023-08-20T20:45:22;5.87;;;5.07;;
19179;SDS011;9722;48.754;8.868;2023-08-20T20:48:43;5.77;;;5.37;;
19179;SDS011;9722;48.754;8.868;2023-08-20T20:52:04;5.50;;;5.10;;
19179;SDS011;9722;48.754;8.868;2023-08-20T20:55:24;5.37;;;4.97;;
19179;SDS011;9722;48.754;8.868;2023-08-20T20:58:45;5.60;;;5.20;;
19179;SDS011;9722;48.754;8.868;2023-08-20T21:02:06;5.93;;;5.27;;
19179;SDS011;9722;48.754;8.868;2023-08-20T21:05:26;5.90;;;5.33;;
19179;SDS011;9722;48.754;8.868;2023-08-20T21:08:47;5.90;;;5.47;;
19179;SDS011;9722;48.754;8.868;2023-08-20T21:12:07;7.03;;;5.80;;
19179;SDS011;9722;48.754;8.868;2023-08-20T21:15:29;7.57;;;6.63;;
19179;SDS011;9722;48.754;8.868;2023-08-20T21:18:49;8.83;;;5.87;;
19179;SDS011;9722;48.754;8.868;2023-08-20T21:22:10;6.53;;;6.03;;
19179;SDS011;9722;48.754;8.868;2023-08-20T21:25:32;7.00;;;5.70;;
19179;SDS011;9722;48.754;8.868;2023-08-20T21:28:53;6.27;;;5.80;;
19179;SDS011;9722;48.754;8.868;2023-08-20T21:32:14;6.70;;;6.20;;
19179;SDS011;9722;48.754;8.868;2023-08-20T21:35:34;6.97;;;6.00;;
19179;SDS011;9722;48.754;8.868;2023-08-20T21:38:55;6.77;;;6.07;;
19179;SDS011;9722;48.754;8.868;2023-08-20T21:42:15;5.57;;;5.17;;
19179;SDS011;9722;48.754;8.868;2023-08-20T21:45:36;6.40;;;5.90;;
19179;SDS011;9722;48.754;8.868;2023-08-20T21:48:56;6.20;;;5.70;;
19179;SDS011;9722;48.754;8.868;2023-08-20T21:52:17;5.80;;;5.40;;
19179;SDS011;9722;48.754;8.868;2023-08-20T21:55:40;6.23;;;5.73;;
19179;SDS011;9722;48.754;8.868;2023-08-20T21:59:01;6.07;;;5.67;;
19179;SDS011;9722;48.754;8.868;2023-08-20T22:02:22;6.27;;;5.77;;
19179;SDS011;9722;48.754;8.868;2023-08-20T22:05:43;6.37;;;5.77;;
19179;SDS011;9722;48.754;8.868;2023-08-20T22:09:03;6.53;;;6.03;;
19179;SDS011;9722;48.754;8.868;2023-08-20T22:12:24;6.33;;;5.77;;
19179;SDS011;9722;48.754;8.868;2023-08-20T22:15:44;6.10;;;5.70;;
19179;SDS011;9722;48.754;8.868;2023-08-20T22:19:05;6.23;;;5.73;;
19179;SDS011;9722;48.754;8.868;2023-08-20T22:22:25;6.37;;;5.83;;
19179;SDS011;9722;48.754;8.868;2023-08-20T22:25:46;7.13;;;6.23;;
19179;SDS011;9722;48.754;8.868;2023-08-20T22:29:06;6.20;;;5.70;;
19179;SDS011;9722;48.754;8.868;2023-08-20T22:32:27;5.90;;;5.33;;
19179;SDS011;9722;48.754;8.868;2023-08-20T22:35:50;5.27;;;4.87;;
19179;SDS011;9722;48.754;8.868;2023-08-20T22:39:11;6.23;;;5.67;;
19179;SDS011;9722;48.754;8.868;2023-08-20T22:42:32;5.87;;;5.47;;
19179;SDS011;9722;48.754;8.868;2023-08-20T22:45:53;6.00;;;5.30;;
19179;SDS011;9722;48.754;8.868;2023-08-20T22:49:14;8.33;;;5.83;;
19179;SDS011;9722;48.754;8.868;2023-08-20T22:52:34;6.23;;;5.73;;
19179;SDS011;9722;48.754;8.868;2023-08-20T22:55:55;6.30;;;5.70;;
19179;SDS011;9722;48.754;8.868;2023-08-20T22:59:15;5.97;;;5.57;;
19179;SDS011;9722;48.754;8.868;2023-08-20T23:02:36;6.10;;;5.60;;
19179;SDS011;9722;48.754;8.868;2023-08-20T23:05:57;5.90;;;5.43;;
19179;SDS011;9722;48.754;8.868;2023-08-20T23:09:18;6.77;;;5.20;;
19179;SDS011;9722;48.754;8.868;2023-08-20T23:12:39;6.10;;;5.60;;
19179;SDS011;9722;48.754;8.868;2023-08-20T23:15:59;5.20;;;4.80;;
19179;SDS011;9722;48.754;8.868;2023-08-20T23:19:20;5.13;;;4.77;;
19179;SDS011;9722;48.754;8.868;2023-08-20T23:22:40;5.13;;;4.80;;
19179;SDS011;9722;48.754;8.868;2023-08-20T23:26:01;5.37;;;4.97;;
19179;SDS011;9722;48.754;8.868;2023-08-20T23:29:22;5.33;;;4.93;;
19179;SDS011;9722;48.754;8.868;2023-08-20T23:32:43;7.57;;;5.20;;
19179;SDS011;9722;48.754;8.868;2023-08-20T23:36:06;8.20;;;5.00;;
19179;SDS011;9722;48.754;8.868;2023-08-20T23:39:27;5.63;;;5.10;;
19179;SDS011;9722;48.754;8.868;2023-08-20T23:42:47;5.30;;;4.70;;
19179;SDS011;9722;48.754;8.868;2023-08-20T23:46:10;6.27;;;5.67;;
19179;SDS011;9722;48.754;8.868;2023-08-20T23:49:30;6.33;;;5.73;;
19179;SDS011;9722;48.754;8.868;2023-08-20T23:52:51;6.13;;;5.67;;
19179;SDS011;9722;48.754;8.868;2023-08-20T23:56:11;6.43;;;5.83;;
19179;SDS011;9722;48.754;8.868;2023-08-20T23:59:32;6.67;;;6.17;;
